Time;durP1;ratioP1;P1;durP2;ratioP2;P2;SDS_P1;SDS_P2;PMS_P1;PMS_P2;Temp;Humidity;BMP_temperature;BMP_pressure;BME280_temperature;BME280_humidity;BME280_pressure;Samples;Min_cycle;Max_cycle;Signal;HPM_P1;HPM_P2
2022/03/27 00:01:44;;;;;;;29.65;14.40;;;;;;;;;;5051748;28;20044;-65
2022/03/27 00:04:11;;;;;;;29.90;14.65;;;;;;;;;;5051798;28;20049;-65
2022/03/27 00:06:38;;;;;;;26.20;13.38;;;;;;;;;;5051848;28;20045;-66
2022/03/27 00:09:04;;;;;;;23.08;13.77;;;;;;;;;;5051680;28;20045;-66
2022/03/27 00:11:31;;;;;;;24.40;13.50;;;;;;;;;;5050693;28;20049;-66
2022/03/27 00:13:59;;;;;;;23.77;13.38;;;;;;;;;;5051936;28;20369;-65
2022/03/27 00:16:26;;;;;;;25.50;13.48;;;;;;;;;;5051954;28;20049;-66
2022/03/27 00:18:53;;;;;;;21.48;13.23;;;;;;;;;;5051670;28;20060;-66
2022/03/27 00:21:22;;;;;;;24.73;13.35;;;;;;;;;;5051796;28;20049;-65
2022/03/27 00:23:50;;;;;;;24.92;12.43;;;;;;;;;;5051613;28;20056;-65
2022/03/27 00:26:17;;;;;;;26.38;13.80;;;;;;;;;;5051590;28;20049;-65
2022/03/27 00:28:43;;;;;;;29.83;13.70;;;;;;;;;;5051670;28;20068;-66
2022/03/27 00:31:11;;;;;;;22.98;12.57;;;;;;;;;;5051432;28;20052;-66
2022/03/27 00:33:39;;;;;;;23.58;13.25;;;;;;;;;;5050653;28;20474;-66
2022/03/27 00:36:08;;;;;;;27.95;13.45;;;;;;;;;;5051452;28;20045;-65
2022/03/27 00:38:34;;;;;;;27.67;13.98;;;;;;;;;;5051685;28;20397;-66
2022/03/27 00:41:01;;;;;;;26.48;12.93;;;;;;;;;;5051467;28;20049;-66
2022/03/27 00:43:28;;;;;;;25.05;12.13;;;;;;;;;;5051348;28;20052;-66
2022/03/27 00:45:55;;;;;;;24.60;13.55;;;;;;;;;;5051395;28;20102;-65
2022/03/27 00:48:23;;;;;;;21.98;12.55;;;;;;;;;;5051859;28;20446;-65
2022/03/27 00:50:50;;;;;;;22.67;12.10;;;;;;;;;;5051437;28;20122;-65
2022/03/27 00:53:18;;;;;;;26.73;13.38;;;;;;;;;;5051205;28;20496;-65
2022/03/27 00:55:45;;;;;;;26.35;11.85;;;;;;;;;;5051409;28;20123;-65
2022/03/27 00:58:13;;;;;;;23.20;12.90;;;;;;;;;;5051326;28;20102;-65
2022/03/27 01:00:45;;;;;;;20.98;12.52;;;;;;;;;;5049948;28;20488;-65
2022/03/27 01:06:59;;;;;;;25.17;13.52;;;;;;;;;;5051478;28;20590;-65
2022/03/27 01:09:37;;;;;;;24.40;13.10;;;;;;;;;;5051407;28;20052;-66
2022/03/27 01:12:22;;;;;;;26.17;13.25;;;;;;;;;;5051187;28;20052;-65
2022/03/27 01:14:53;;;;;;;22.20;12.88;;;;;;;;;;5051219;28;20107;-66
2022/03/27 01:17:24;;;;;;;26.80;13.50;;;;;;;;;;5051061;28;20091;-66
2022/03/27 01:19:54;;;;;;;26.60;14.07;;;;;;;;;;5052089;28;20473;-65
2022/03/27 01:22:21;;;;;;;23.40;13.23;;;;;;;;;;5054834;28;20053;-66
2022/03/27 01:24:50;;;;;;;27.90;12.85;;;;;;;;;;5054983;28;20048;-65
2022/03/27 01:27:17;;;;;;;27.77;13.43;;;;;;;;;;5054892;28;20052;-66
2022/03/27 01:29:44;;;;;;;27.20;13.95;;;;;;;;;;5054668;28;20052;-65
2022/03/27 01:32:14;;;;;;;20.25;13.02;;;;;;;;;;5054771;28;20053;-65
2022/03/27 01:34:44;;;;;;;24.05;12.93;;;;;;;;;;5054483;28;20044;-65
2022/03/27 01:37:14;;;;;;;29.38;14.27;;;;;;;;;;5054929;28;20052;-65
2022/03/27 01:39:41;;;;;;;29.50;14.13;;;;;;;;;;5054890;28;20499;-65
2022/03/27 01:42:08;;;;;;;27.20;13.77;;;;;;;;;;5054285;28;20045;-65
2022/03/27 01:44:35;;;;;;;25.40;14.18;;;;;;;;;;5054766;28;20397;-64
2022/03/27 01:47:02;;;;;;;27.58;14.23;;;;;;;;;;5054545;28;20095;-64
2022/03/27 01:49:29;;;;;;;26.30;13.68;;;;;;;;;;5054641;28;20053;-66
2022/03/27 01:51:55;;;;;;;26.83;13.45;;;;;;;;;;5054290;28;20052;-67
2022/03/27 01:54:22;;;;;;;24.63;13.18;;;;;;;;;;5054244;28;20103;-64
2022/03/27 01:56:49;;;;;;;25.77;13.75;;;;;;;;;;5054713;28;20045;-65
2022/03/27 01:59:16;;;;;;;27.73;12.77;;;;;;;;;;5055208;28;20049;-65
2022/03/27 02:01:42;;;;;;;31.40;15.13;;;;;;;;;;5054148;28;20110;-65
2022/03/27 02:04:11;;;;;;;27.02;13.20;;;;;;;;;;5054255;28;20126;-65
2022/03/27 02:06:37;;;;;;;21.48;12.45;;;;;;;;;;5054113;28;20053;-65
2022/03/27 02:09:04;;;;;;;26.40;12.68;;;;;;;;;;5054330;28;20175;-64
2022/03/27 02:11:31;;;;;;;28.38;13.85;;;;;;;;;;5054235;28;20053;-65
2022/03/27 02:13:58;;;;;;;26.70;14.18;;;;;;;;;;5054090;28;20057;-65
2022/03/27 02:16:24;;;;;;;26.17;14.32;;;;;;;;;;5054018;28;20045;-65
2022/03/27 02:18:51;;;;;;;25.30;13.50;;;;;;;;;;5054064;28;20084;-65
2022/03/27 02:21:18;;;;;;;29.83;13.98;;;;;;;;;;5053695;28;20569;-65
2022/03/27 02:23:45;;;;;;;23.13;13.20;;;;;;;;;;5053639;28;20294;-65
2022/03/27 02:26:12;;;;;;;25.65;14.20;;;;;;;;;;5053902;28;20496;-65
2022/03/27 02:28:40;;;;;;;23.60;12.00;;;;;;;;;;5054005;28;20049;-65
2022/03/27 02:31:08;;;;;;;25.73;13.60;;;;;;;;;;5053433;28;20053;-66
2022/03/27 02:33:36;;;;;;;25.75;14.13;;;;;;;;;;5052973;28;20057;-66
2022/03/27 02:36:05;;;;;;;31.30;13.57;;;;;;;;;;5053535;28;20099;-66
2022/03/27 02:38:32;;;;;;;28.33;14.38;;;;;;;;;;5053417;28;20182;-66
2022/03/27 02:40:58;;;;;;;25.00;13.88;;;;;;;;;;5053278;28;20076;-66
2022/03/27 02:43:25;;;;;;;27.52;13.98;;;;;;;;;;5053450;28;20053;-66
2022/03/27 02:45:53;;;;;;;21.42;13.52;;;;;;;;;;5053491;28;20103;-66
2022/03/27 02:48:19;;;;;;;31.45;14.95;;;;;;;;;;5053320;28;20049;-66
2022/03/27 02:50:47;;;;;;;26.58;13.38;;;;;;;;;;5053352;28;20044;-66
2022/03/27 02:53:13;;;;;;;26.30;12.98;;;;;;;;;;5053024;28;20057;-65
2022/03/27 02:55:40;;;;;;;31.40;13.20;;;;;;;;;;5053348;28;20053;-66
2022/03/27 02:58:07;;;;;;;26.25;13.27;;;;;;;;;;5053454;28;20457;-66
2022/03/27 03:00:34;;;;;;;24.90;13.50;;;;;;;;;;5053316;28;20049;-66
2022/03/27 03:03:00;;;;;;;28.58;13.10;;;;;;;;;;5052892;28;20055;-66
2022/03/27 03:05:27;;;;;;;25.65;13.38;;;;;;;;;;5052981;28;20049;-65
2022/03/27 03:07:54;;;;;;;25.67;13.15;;;;;;;;;;5052160;28;20103;-66
2022/03/27 03:10:21;;;;;;;25.80;14.07;;;;;;;;;;5051944;28;20049;-65
2022/03/27 03:12:47;;;;;;;29.75;14.90;;;;;;;;;;5052544;28;20049;-65
2022/03/27 03:15:14;;;;;;;27.95;13.75;;;;;;;;;;5052925;28;20049;-66
2022/03/27 03:17:41;;;;;;;25.35;13.18;;;;;;;;;;5052805;28;20484;-65
2022/03/27 03:20:09;;;;;;;28.33;13.35;;;;;;;;;;5052597;28;20053;-66
2022/03/27 03:22:36;;;;;;;25.08;12.43;;;;;;;;;;5052631;28;20049;-65
2022/03/27 03:25:03;;;;;;;24.27;13.38;;;;;;;;;;5052811;28;20087;-65
2022/03/27 03:27:30;;;;;;;24.27;12.52;;;;;;;;;;5052857;28;20044;-65
2022/03/27 03:29:57;;;;;;;27.60;12.98;;;;;;;;;;5052666;28;20464;-65
2022/03/27 03:32:23;;;;;;;23.88;12.52;;;;;;;;;;5052310;28;20053;-65
2022/03/27 03:34:51;;;;;;;26.02;13.27;;;;;;;;;;5051793;28;20563;-65
2022/03/27 03:37:17;;;;;;;31.58;13.82;;;;;;;;;;5052280;28;20087;-65
2022/03/27 03:39:46;;;;;;;27.77;13.15;;;;;;;;;;5052487;28;20056;-65
2022/03/27 03:42:12;;;;;;;27.55;12.52;;;;;;;;;;5051629;28;20052;-66
2022/03/27 03:44:39;;;;;;;22.98;13.13;;;;;;;;;;5052312;28;20467;-65
2022/03/27 03:47:06;;;;;;;28.70;12.98;;;;;;;;;;5052192;28;20068;-65
2022/03/27 03:49:32;;;;;;;26.50;13.02;;;;;;;;;;5052355;28;20045;-65
2022/03/27 03:51:59;;;;;;;21.58;12.25;;;;;;;;;;5052171;28;20053;-66
2022/03/27 03:54:25;;;;;;;21.65;13.13;;;;;;;;;;5052231;28;20049;-65
2022/03/27 03:56:52;;;;;;;22.15;12.00;;;;;;;;;;5052085;28;20041;-65
2022/03/27 03:59:19;;;;;;;30.23;14.32;;;;;;;;;;5052096;28;20049;-65
2022/03/27 04:01:56;;;;;;;27.70;12.73;;;;;;;;;;5051584;28;20423;-65
2022/03/27 04:04:23;;;;;;;28.70;13.25;;;;;;;;;;5075099;22;20422;-65
2022/03/27 04:06:49;;;;;;;31.75;13.27;;;;;;;;;;5052034;28;20126;-65
2022/03/27 04:09:16;;;;;;;26.65;12.95;;;;;;;;;;5051948;28;20049;-66
2022/03/27 04:11:43;;;;;;;29.15;12.73;;;;;;;;;;5051680;28;20056;-66
2022/03/27 04:14:10;;;;;;;24.15;13.77;;;;;;;;;;5051622;28;20056;-65
2022/03/27 04:16:36;;;;;;;34.40;14.82;;;;;;;;;;5051664;28;20518;-65
2022/03/27 04:19:03;;;;;;;26.50;13.98;;;;;;;;;;5051940;28;20099;-65
2022/03/27 04:21:30;;;;;;;27.88;13.38;;;;;;;;;;5050581;28;20056;-66
2022/03/27 04:23:57;;;;;;;24.95;12.80;;;;;;;;;;5051613;28;20053;-66
2022/03/27 04:26:29;;;;;;;26.25;13.48;;;;;;;;;;5051847;28;20099;-66
2022/03/27 04:28:55;;;;;;;29.10;13.05;;;;;;;;;;5051453;28;20053;-66
2022/03/27 04:31:22;;;;;;;25.33;13.27;;;;;;;;;;5051683;28;20396;-65
2022/03/27 04:33:49;;;;;;;30.58;13.07;;;;;;;;;;5051088;28;20049;-66
2022/03/27 04:36:15;;;;;;;30.98;14.25;;;;;;;;;;5051578;28;20061;-66
2022/03/27 04:38:42;;;;;;;27.27;13.48;;;;;;;;;;5051420;28;20041;-66
2022/03/27 04:41:08;;;;;;;24.38;13.63;;;;;;;;;;5051412;28;20048;-66
2022/03/27 04:43:35;;;;;;;28.42;13.27;;;;;;;;;;5051418;28;20103;-66
2022/03/27 04:46:01;;;;;;;28.10;13.32;;;;;;;;;;5051471;28;20076;-66
2022/03/27 04:48:29;;;;;;;29.98;15.48;;;;;;;;;;5051931;28;20044;-66
2022/03/27 04:50:55;;;;;;;28.38;13.10;;;;;;;;;;5051552;28;20053;-66
2022/03/27 04:53:22;;;;;;;30.67;13.75;;;;;;;;;;5051485;28;20045;-66
2022/03/27 04:55:49;;;;;;;22.52;12.75;;;;;;;;;;5055534;28;20057;-65
2022/03/27 04:58:16;;;;;;;26.65;13.45;;;;;;;;;;5055293;28;20045;-66
2022/03/27 05:00:43;;;;;;;23.48;12.98;;;;;;;;;;5054462;28;20094;-66
2022/03/27 05:03:11;;;;;;;27.88;14.02;;;;;;;;;;5055108;28;20567;-66
2022/03/27 05:05:39;;;;;;;28.63;13.80;;;;;;;;;;5055319;28;20087;-66
2022/03/27 05:08:06;;;;;;;27.95;14.02;;;;;;;;;;5053873;28;20495;-66
2022/03/27 05:10:32;;;;;;;24.85;13.07;;;;;;;;;;5055215;28;20102;-66
2022/03/27 05:12:59;;;;;;;28.33;14.07;;;;;;;;;;5055059;28;20053;-66
2022/03/27 05:15:27;;;;;;;26.63;13.45;;;;;;;;;;5055543;28;20056;-65
2022/03/27 05:17:58;;;;;;;26.30;13.45;;;;;;;;;;5054889;28;20098;-66
2022/03/27 05:20:26;;;;;;;29.95;13.50;;;;;;;;;;5054992;28;20452;-66
2022/03/27 05:22:53;;;;;;;31.48;14.13;;;;;;;;;;5053626;28;20052;-66
2022/03/27 05:25:19;;;;;;;27.10;13.95;;;;;;;;;;5053934;28;20075;-66
2022/03/27 05:27:53;;;;;;;24.08;13.05;;;;;;;;;;5054865;28;20079;-66
2022/03/27 05:30:24;;;;;;;24.65;13.88;;;;;;;;;;5055094;28;20472;-66
2022/03/27 05:32:53;;;;;;;29.15;15.02;;;;;;;;;;5054568;28;20470;-65
2022/03/27 05:35:20;;;;;;;27.77;13.95;;;;;;;;;;5054175;28;20045;-65
2022/03/27 05:37:47;;;;;;;28.73;13.52;;;;;;;;;;5054514;28;20095;-65
2022/03/27 05:40:17;;;;;;;26.40;13.80;;;;;;;;;;5053783;28;20053;-65
2022/03/27 05:42:44;;;;;;;29.40;12.93;;;;;;;;;;5054646;28;20049;-65
2022/03/27 05:45:11;;;;;;;23.80;13.43;;;;;;;;;;5054682;28;20053;-65
2022/03/27 05:47:38;;;;;;;25.35;13.00;;;;;;;;;;5054591;28;20099;-65
2022/03/27 05:50:05;;;;;;;28.15;13.98;;;;;;;;;;5054397;28;20052;-66
2022/03/27 05:52:31;;;;;;;27.83;13.23;;;;;;;;;;5054544;28;20110;-65
2022/03/27 05:54:58;;;;;;;27.60;13.32;;;;;;;;;;5054651;28;20053;-66
2022/03/27 05:57:25;;;;;;;24.95;14.63;;;;;;;;;;5054658;28;20052;-65
2022/03/27 05:59:51;;;;;;;25.25;13.68;;;;;;;;;;5054256;28;20103;-66
2022/03/27 06:02:18;;;;;;;23.10;12.95;;;;;;;;;;5054135;28;20114;-65
2022/03/27 06:04:45;;;;;;;24.75;13.52;;;;;;;;;;5053898;28;20055;-66
2022/03/27 06:07:12;;;;;;;23.85;13.77;;;;;;;;;;5053801;28;20084;-66
2022/03/27 06:09:39;;;;;;;23.98;12.98;;;;;;;;;;5054318;28;20059;-66
2022/03/27 06:12:06;;;;;;;24.25;11.90;;;;;;;;;;5053979;28;20079;-66
2022/03/27 06:14:33;;;;;;;23.58;12.98;;;;;;;;;;5054004;28;20053;-65
2022/03/27 06:16:59;;;;;;;28.90;13.60;;;;;;;;;;5054452;28;20095;-66
2022/03/27 06:19:26;;;;;;;24.25;12.35;;;;;;;;;;5053790;28;20520;-66
2022/03/27 06:21:53;;;;;;;21.23;12.68;;;;;;;;;;5053743;28;20107;-66
2022/03/27 06:24:19;;;;;;;22.98;11.95;;;;;;;;;;5054071;28;20053;-65
2022/03/27 06:26:46;;;;;;;21.98;14.15;;;;;;;;;;5052604;28;20496;-66
2022/03/27 06:29:14;;;;;;;22.48;11.98;;;;;;;;;;5053952;28;20473;-66
2022/03/27 06:31:40;;;;;;;29.23;13.10;;;;;;;;;;5052328;28;20076;-66
2022/03/27 06:34:07;;;;;;;26.13;12.57;;;;;;;;;;5053349;28;20081;-66
2022/03/27 06:36:34;;;;;;;27.00;13.75;;;;;;;;;;5053674;28;20470;-66
2022/03/27 06:39:03;;;;;;;24.30;13.68;;;;;;;;;;5053431;28;20040;-66
2022/03/27 06:41:29;;;;;;;26.30;13.18;;;;;;;;;;5053530;28;20462;-65
2022/03/27 06:43:56;;;;;;;27.30;13.15;;;;;;;;;;5053640;28;20045;-66
2022/03/27 06:46:23;;;;;;;25.35;14.43;;;;;;;;;;5053422;28;20107;-66
2022/03/27 06:48:49;;;;;;;30.20;15.15;;;;;;;;;;5053839;28;20052;-66
2022/03/27 06:51:16;;;;;;;28.00;14.23;;;;;;;;;;5053260;28;20466;-65
2022/03/27 06:53:43;;;;;;;27.55;15.07;;;;;;;;;;5053341;28;20053;-65
2022/03/27 06:56:10;;;;;;;26.90;14.18;;;;;;;;;;5053161;28;20083;-65
2022/03/27 06:58:37;;;;;;;41.63;18.50;;;;;;;;;;5053260;28;20071;-66
2022/03/27 07:03:48;;;;;;;30.98;16.00;;;;;;;;;;5053092;28;20064;-66
2022/03/27 07:06:16;;;;;;;31.27;15.00;;;;;;;;;;5053003;28;20087;-66
2022/03/27 07:08:43;;;;;;;24.65;14.75;;;;;;;;;;5052056;28;20049;-65
2022/03/27 07:11:10;;;;;;;36.35;19.95;;;;;;;;;;5052804;28;20056;-66
2022/03/27 07:13:36;;;;;;;38.10;22.92;;;;;;;;;;5052795;28;20053;-65
2022/03/27 07:16:04;;;;;;;33.55;18.65;;;;;;;;;;5052843;28;20053;-65
2022/03/27 07:18:31;;;;;;;30.50;14.88;;;;;;;;;;5051974;28;20411;-65
2022/03/27 07:20:59;;;;;;;24.90;14.02;;;;;;;;;;5052686;28;20122;-67
2022/03/27 07:23:25;;;;;;;31.83;14.50;;;;;;;;;;5052784;28;20232;-67
2022/03/27 07:25:53;;;;;;;30.20;14.98;;;;;;;;;;5052586;28;20057;-67
2022/03/27 07:28:20;;;;;;;27.23;14.15;;;;;;;;;;5053122;28;20510;-67
2022/03/27 07:30:48;;;;;;;31.13;14.13;;;;;;;;;;5052682;28;20396;-66
2022/03/27 07:33:15;;;;;;;23.52;14.55;;;;;;;;;;5052768;28;20049;-67
2022/03/27 07:35:42;;;;;;;27.90;14.90;;;;;;;;;;5051955;28;20056;-65
2022/03/27 07:38:09;;;;;;;25.75;13.57;;;;;;;;;;5052408;28;20099;-65
2022/03/27 07:40:36;;;;;;;27.80;15.05;;;;;;;;;;5052214;28;20052;-65
2022/03/27 07:43:02;;;;;;;27.98;14.10;;;;;;;;;;5052438;28;20052;-65
2022/03/27 07:45:30;;;;;;;25.02;14.82;;;;;;;;;;5052448;28;20045;-66
2022/03/27 07:47:57;;;;;;;25.27;13.27;;;;;;;;;;5052363;28;20049;-66
2022/03/27 07:50:25;;;;;;;26.90;14.55;;;;;;;;;;5052189;28;20099;-66
2022/03/27 07:52:52;;;;;;;26.42;15.10;;;;;;;;;;5051982;28;20107;-66
2022/03/27 07:55:20;;;;;;;30.13;14.45;;;;;;;;;;5051980;28;20052;-66
2022/03/27 07:57:53;;;;;;;27.40;14.52;;;;;;;;;;5052232;28;20053;-66
2022/03/27 08:00:20;;;;;;;29.40;13.38;;;;;;;;;;5051903;28;20052;-66
2022/03/27 08:02:47;;;;;;;30.58;13.35;;;;;;;;;;5051830;28;20048;-66
2022/03/27 08:05:14;;;;;;;26.27;13.95;;;;;;;;;;5051854;28;20056;-66
2022/03/27 08:07:40;;;;;;;27.65;14.50;;;;;;;;;;5051883;28;20122;-66
2022/03/27 08:10:07;;;;;;;24.52;13.63;;;;;;;;;;5051755;28;20060;-66
2022/03/27 08:12:35;;;;;;;26.50;12.57;;;;;;;;;;5051829;28;20052;-66
2022/03/27 08:15:04;;;;;;;24.42;14.23;;;;;;;;;;5051773;28;20179;-66
2022/03/27 08:17:30;;;;;;;22.80;12.88;;;;;;;;;;5051830;28;20045;-66
2022/03/27 08:19:57;;;;;;;23.55;11.98;;;;;;;;;;5052172;28;20053;-66
2022/03/27 08:22:24;;;;;;;24.30;12.32;;;;;;;;;;5051378;28;20110;-66
2022/03/27 08:24:51;;;;;;;25.75;12.50;;;;;;;;;;5052124;28;20063;-66
2022/03/27 08:27:20;;;;;;;21.92;11.30;;;;;;;;;;5051761;28;20052;-66
2022/03/27 08:29:47;;;;;;;18.27;9.45;;;;;;;;;;5051531;28;20047;-66
2022/03/27 08:32:15;;;;;;;21.98;11.60;;;;;;;;;;5051444;28;20473;-66
2022/03/27 08:34:44;;;;;;;22.33;13.07;;;;;;;;;;5050843;28;20462;-66
2022/03/27 08:37:13;;;;;;;25.27;12.18;;;;;;;;;;5051745;28;20049;-66
2022/03/27 08:39:41;;;;;;;25.88;12.65;;;;;;;;;;5051776;28;20091;-66
2022/03/27 08:42:07;;;;;;;27.50;12.98;;;;;;;;;;5051321;28;20049;-66
2022/03/27 08:44:37;;;;;;;21.15;12.30;;;;;;;;;;5051493;28;20466;-66
2022/03/27 08:47:22;;;;;;;25.70;13.38;;;;;;;;;;5050432;28;20053;-66
2022/03/27 08:49:53;;;;;;;23.60;12.43;;;;;;;;;;5034777;28;20099;-66
2022/03/27 08:52:21;;;;;;;20.75;11.88;;;;;;;;;;5051380;28;20049;-66
2022/03/27 08:55:12;;;;;;;22.02;12.07;;;;;;;;;;5051491;28;20087;-66
2022/03/27 08:57:58;;;;;;;23.27;12.65;;;;;;;;;;5050270;28;20110;-66
2022/03/27 09:00:28;;;;;;;24.58;12.20;;;;;;;;;;5051206;28;20462;-66
2022/03/27 09:02:59;;;;;;;26.17;13.45;;;;;;;;;;5050920;28;20056;-65
2022/03/27 09:05:26;;;;;;;22.17;12.30;;;;;;;;;;5051211;28;20049;-66
2022/03/27 09:07:54;;;;;;;21.65;13.05;;;;;;;;;;5051287;28;20049;-66
2022/03/27 09:10:21;;;;;;;24.13;12.43;;;;;;;;;;5051060;28;20118;-66
2022/03/27 09:12:50;;;;;;;29.85;13.02;;;;;;;;;;5033631;28;20061;-65
2022/03/27 09:15:19;;;;;;;20.40;12.30;;;;;;;;;;5051308;28;20172;-65
2022/03/27 09:17:58;;;;;;;22.92;13.38;;;;;;;;;;5051145;28;20045;-66
2022/03/27 09:20:42;;;;;;;30.60;14.25;;;;;;;;;;5051041;28;20490;-65
2022/03/27 09:23:19;;;;;;;22.13;12.68;;;;;;;;;;5050939;28;20099;-66
2022/03/27 09:25:47;;;;;;;20.00;11.50;;;;;;;;;;5051397;28;20053;-66
2022/03/27 09:28:30;;;;;;;20.83;10.82;;;;;;;;;;5051152;28;20045;-65
2022/03/27 09:30:58;;;;;;;16.88;10.52;;;;;;;;;;5050785;28;20053;-65
2022/03/27 09:33:46;;;;;;;23.52;11.13;;;;;;;;;;5050499;28;20076;-66
2022/03/27 09:36:15;;;;;;;18.10;11.27;;;;;;;;;;5051864;28;20095;-66
2022/03/27 09:38:56;;;;;;;22.27;11.40;;;;;;;;;;5051603;28;20544;-65
2022/03/27 09:41:36;;;;;;;19.70;11.45;;;;;;;;;;5051286;28;20057;-65
2022/03/27 09:44:09;;;;;;;22.40;11.48;;;;;;;;;;5054759;28;20099;-66
2022/03/27 09:46:57;;;;;;;26.35;13.13;;;;;;;;;;5054721;28;20106;-66
2022/03/27 09:49:38;;;;;;;26.27;12.35;;;;;;;;;;5054535;28;20053;-65
2022/03/27 09:52:13;;;;;;;18.67;11.75;;;;;;;;;;5054432;28;20052;-66
2022/03/27 09:54:51;;;;;;;20.80;11.98;;;;;;;;;;5054186;28;20492;-66
2022/03/27 09:57:26;;;;;;;21.65;12.02;;;;;;;;;;5054459;28;20099;-66
2022/03/27 09:59:54;;;;;;;20.88;12.38;;;;;;;;;;5054254;28;20091;-66
2022/03/27 10:02:26;;;;;;;21.35;12.32;;;;;;;;;;5053826;28;20048;-65
2022/03/27 10:05:02;;;;;;;25.10;12.60;;;;;;;;;;5077560;22;20136;-65
2022/03/27 10:07:45;;;;;;;22.40;11.80;;;;;;;;;;5054265;28;20107;-66
2022/03/27 10:10:14;;;;;;;23.40;12.00;;;;;;;;;;5054116;28;20566;-64
2022/03/27 10:12:43;;;;;;;20.35;12.55;;;;;;;;;;5053840;28;20057;-66
2022/03/27 10:15:12;;;;;;;20.98;12.80;;;;;;;;;;5054220;28;20136;-65
2022/03/27 10:17:41;;;;;;;16.75;11.15;;;;;;;;;;5054112;28;20095;-65
2022/03/27 10:20:10;;;;;;;23.20;12.63;;;;;;;;;;5053917;28;20045;-65
2022/03/27 10:22:40;;;;;;;19.15;11.82;;;;;;;;;;5053668;28;20048;-65
2022/03/27 10:25:09;;;;;;;21.02;11.75;;;;;;;;;;5053739;28;20051;-66
2022/03/27 10:27:38;;;;;;;23.42;12.45;;;;;;;;;;5054125;28;20128;-66
2022/03/27 10:30:07;;;;;;;22.70;12.77;;;;;;;;;;5054676;28;20044;-66
2022/03/27 10:32:34;;;;;;;20.00;11.98;;;;;;;;;;5055028;28;20557;-66
2022/03/27 10:35:20;;;;;;;23.40;12.57;;;;;;;;;;5054756;28;20055;-65
2022/03/27 10:37:53;;;;;;;21.80;12.30;;;;;;;;;;5052546;28;20499;-65
2022/03/27 10:40:45;;;;;;;19.90;12.25;;;;;;;;;;5053878;28;20045;-66
2022/03/27 10:43:24;;;;;;;19.38;12.15;;;;;;;;;;5006770;28;20053;-65
2022/03/27 10:46:28;;;;;;;23.17;11.95;;;;;;;;;;5053496;28;20107;-65
2022/03/27 10:49:15;;;;;;;26.20;12.70;;;;;;;;;;5053720;28;20053;-65
2022/03/27 10:51:46;;;;;;;21.23;11.68;;;;;;;;;;5053161;28;20465;-65
2022/03/27 10:54:18;;;;;;;20.05;12.32;;;;;;;;;;5053488;28;20491;-65
2022/03/27 10:56:52;;;;;;;19.67;11.27;;;;;;;;;;5053568;28;20079;-65
2022/03/27 10:59:26;;;;;;;21.65;10.70;;;;;;;;;;5053299;28;20045;-64
2022/03/27 11:01:58;;;;;;;23.60;11.85;;;;;;;;;;5053292;28;20056;-65
2022/03/27 11:04:34;;;;;;;19.35;11.02;;;;;;;;;;5052894;28;20102;-66
2022/03/27 11:07:30;;;;;;;17.30;10.90;;;;;;;;;;5053313;28;20122;-66
2022/03/27 11:09:57;;;;;;;18.88;10.85;;;;;;;;;;5040176;28;20049;-65
2022/03/27 11:12:24;;;;;;;16.25;9.77;;;;;;;;;;5052663;28;20500;-65
2022/03/27 11:14:54;;;;;;;18.98;10.48;;;;;;;;;;5052898;28;20053;-66
2022/03/27 11:17:34;;;;;;;17.85;9.43;;;;;;;;;;5052813;28;20503;-66
2022/03/27 11:20:03;;;;;;;17.52;10.40;;;;;;;;;;5052956;28;20466;-66
2022/03/27 11:22:53;;;;;;;18.27;9.80;;;;;;;;;;5052547;28;20053;-65
2022/03/27 11:25:31;;;;;;;17.98;9.85;;;;;;;;;;5052882;28;20084;-66
2022/03/27 11:28:18;;;;;;;18.27;10.38;;;;;;;;;;5052889;28;20053;-66
2022/03/27 11:30:47;;;;;;;18.35;9.40;;;;;;;;;;5052343;28;20056;-66
2022/03/27 11:33:23;;;;;;;18.15;9.30;;;;;;;;;;5052489;28;20049;-66
2022/03/27 11:36:04;;;;;;;20.85;10.88;;;;;;;;;;5052529;28;20057;-65
2022/03/27 11:38:33;;;;;;;17.88;11.50;;;;;;;;;;5052715;28;20076;-66
2022/03/27 11:41:26;;;;;;;16.60;9.57;;;;;;;;;;5052476;28;20045;-65
2022/03/27 11:44:16;;;;;;;19.85;9.60;;;;;;;;;;5052185;28;20048;-66
2022/03/27 11:46:53;;;;;;;19.23;9.35;;;;;;;;;;5046214;28;20060;-66
2022/03/27 11:49:35;;;;;;;18.48;9.52;;;;;;;;;;5052355;28;20107;-66
2022/03/27 11:52:13;;;;;;;13.47;8.83;;;;;;;;;;5052426;28;20462;-66
2022/03/27 11:54:40;;;;;;;19.55;10.73;;;;;;;;;;5052065;28;20774;-66
2022/03/27 11:57:08;;;;;;;16.55;9.63;;;;;;;;;;5052037;28;20507;-66
2022/03/27 11:59:48;;;;;;;17.95;9.85;;;;;;;;;;5051911;28;20041;-65
2022/03/27 12:02:16;;;;;;;19.83;9.55;;;;;;;;;;5052395;28;20053;-67
2022/03/27 12:04:56;;;;;;;15.68;9.13;;;;;;;;;;5051345;28;20075;-66
2022/03/27 12:07:25;;;;;;;16.60;9.52;;;;;;;;;;5050754;28;20049;-66
2022/03/27 12:09:59;;;;;;;20.38;9.57;;;;;;;;;;5052227;28;20044;-67
2022/03/27 12:12:27;;;;;;;16.48;9.43;;;;;;;;;;5051966;28;20053;-66
2022/03/27 12:15:02;;;;;;;18.30;9.52;;;;;;;;;;5050814;28;20561;-67
2022/03/27 12:17:31;;;;;;;15.48;9.45;;;;;;;;;;5051925;28;20052;-66
2022/03/27 12:20:06;;;;;;;16.63;9.85;;;;;;;;;;5051980;28;20053;-66
2022/03/27 12:22:41;;;;;;;19.33;9.68;;;;;;;;;;5051698;28;20056;-66
2022/03/27 12:25:19;;;;;;;18.38;9.05;;;;;;;;;;5051994;28;20060;-66
2022/03/27 12:30:52;;;;;;;18.13;8.68;;;;;;;;;;5051493;28;20443;-66
2022/03/27 12:33:23;;;;;;;13.35;9.27;;;;;;;;;;5051837;28;20110;-66
2022/03/27 12:36:09;;;;;;;20.90;9.65;;;;;;;;;;5050849;28;20053;-66
2022/03/27 12:38:36;;;;;;;17.15;8.65;;;;;;;;;;5052055;28;20458;-66
2022/03/27 12:41:03;;;;;;;15.63;8.98;;;;;;;;;;5051379;28;20049;-65
2022/03/27 12:43:30;;;;;;;13.15;7.50;;;;;;;;;;5051700;28;20489;-66
2022/03/27 12:45:57;;;;;;;17.20;8.23;;;;;;;;;;5051694;28;20049;-66
2022/03/27 12:48:29;;;;;;;16.55;9.25;;;;;;;;;;5050328;28;20048;-66
2022/03/27 12:50:58;;;;;;;17.25;8.10;;;;;;;;;;5050185;28;20052;-65
2022/03/27 12:53:26;;;;;;;14.32;8.15;;;;;;;;;;5051514;28;20045;-66
2022/03/27 12:56:06;;;;;;;15.35;7.90;;;;;;;;;;5052052;28;20420;-67
2022/03/27 12:58:41;;;;;;;14.57;7.30;;;;;;;;;;5051576;28;20131;-67
2022/03/27 13:01:26;;;;;;;12.05;7.82;;;;;;;;;;5051544;28;20056;-67
2022/03/27 13:04:07;;;;;;;13.00;8.18;;;;;;;;;;5051227;28;20057;-65
2022/03/27 13:06:38;;;;;;;12.85;8.40;;;;;;;;;;5051840;28;20076;-66
2022/03/27 13:09:08;;;;;;;15.90;7.55;;;;;;;;;;5051229;28;20484;-65
2022/03/27 13:11:39;;;;;;;16.55;8.30;;;;;;;;;;5051097;28;20098;-66
2022/03/27 13:14:07;;;;;;;;;;;;;;;;;;5051485;28;20056;-65
2022/03/27 13:16:40;;;;;;;12.35;8.20;;;;;;;;;;5053389;28;20338;-65
2022/03/27 13:19:08;;;;;;;14.05;8.38;;;;;;;;;;5055141;28;20130;-65
2022/03/27 13:21:37;;;;;;;15.13;8.30;;;;;;;;;;5054986;28;20049;-65
2022/03/27 13:24:06;;;;;;;13.00;7.32;;;;;;;;;;5054856;28;20049;-65
2022/03/27 13:26:34;;;;;;;10.95;7.28;;;;;;;;;;5054812;28;20115;-65
2022/03/27 13:29:01;;;;;;;18.60;8.15;;;;;;;;;;5055015;28;20048;-65
2022/03/27 13:31:27;;;;;;;13.07;8.65;;;;;;;;;;5054653;28;20095;-65
2022/03/27 13:33:54;;;;;;;12.57;8.18;;;;;;;;;;5054398;28;20082;-65
2022/03/27 13:36:21;;;;;;;9.15;6.45;;;;;;;;;;5054700;28;20553;-65
2022/03/27 13:38:47;;;;;;;9.98;6.93;;;;;;;;;;5053234;28;20561;-65
2022/03/27 13:43:59;;;;;;;12.85;6.15;;;;;;;;;;5054525;28;20045;-65
2022/03/27 13:46:26;;;;;;;14.07;7.28;;;;;;;;;;5054714;28;20119;-64
2022/03/27 13:48:52;;;;;;;11.70;6.85;;;;;;;;;;5054596;28;20134;-65
2022/03/27 13:51:19;;;;;;;12.32;7.63;;;;;;;;;;5054379;28;20103;-65
2022/03/27 13:53:46;;;;;;;11.77;6.53;;;;;;;;;;5054342;28;20045;-65
2022/03/27 13:56:12;;;;;;;13.25;6.93;;;;;;;;;;5054633;28;20049;-65
2022/03/27 13:58:39;;;;;;;10.95;6.32;;;;;;;;;;5037184;28;20075;-64
2022/03/27 14:01:06;;;;;;;12.13;6.72;;;;;;;;;;5054069;28;20071;-65
2022/03/27 14:03:32;;;;;;;11.93;7.60;;;;;;;;;;5054045;28;20045;-65
2022/03/27 14:05:59;;;;;;;8.77;7.40;;;;;;;;;;5054518;28;20156;-64
2022/03/27 14:08:26;;;;;;;13.15;7.43;;;;;;;;;;5053184;28;20057;-65
2022/03/27 14:10:53;;;;;;;15.13;7.38;;;;;;;;;;5053963;28;20041;-65
2022/03/27 14:13:19;;;;;;;13.65;7.18;;;;;;;;;;5054111;28;20053;-65
2022/03/27 14:15:46;;;;;;;19.38;8.10;;;;;;;;;;5054000;28;20048;-65
2022/03/27 14:18:13;;;;;;;11.05;7.20;;;;;;;;;;5054101;28;20091;-65
2022/03/27 14:20:41;;;;;;;12.40;8.10;;;;;;;;;;5053647;28;20095;-65
2022/03/27 14:23:08;;;;;;;14.23;7.28;;;;;;;;;;5053734;28;20053;-65
2022/03/27 14:25:34;;;;;;;13.70;6.65;;;;;;;;;;5053907;28;20049;-65
2022/03/27 14:28:01;;;;;;;11.20;6.25;;;;;;;;;;5053458;28;20053;-65
2022/03/27 14:30:28;;;;;;;11.50;7.15;;;;;;;;;;5053660;28;20496;-65
2022/03/27 14:32:54;;;;;;;10.13;6.63;;;;;;;;;;5053626;28;20048;-65
2022/03/27 14:35:21;;;;;;;12.70;7.00;;;;;;;;;;5053502;28;20122;-65
2022/03/27 14:37:48;;;;;;;15.10;7.63;;;;;;;;;;5053843;28;20053;-65
2022/03/27 14:40:15;;;;;;;15.18;7.22;;;;;;;;;;5053447;28;20049;-64
2022/03/27 14:42:41;;;;;;;14.10;7.57;;;;;;;;;;5053393;28;20097;-65
2022/03/27 14:45:08;;;;;;;11.82;6.65;;;;;;;;;;5054335;28;20495;-65
2022/03/27 14:47:36;;;;;;;10.00;6.28;;;;;;;;;;5055081;28;20049;-65